This is the latest recevied weather packets stored in our database for station/object DF9PM-13. If no packets are shown the sender has not sent any weather packets the latest 10 day(s).
| Time | Temp. | Humidity | Pressure | Rain* | Wind** | Luminosity | Snow |
|---|---|---|---|---|---|---|---|
| 1777926644 | 17.78° C | 88% | 1013 hPa | - | - | - | - |
| 1777926344 | 17.78° C | 89% | 1013 hPa | - | - | - | - |
| 1777926044 | 17.78° C | 86% | 1013.1 hPa | - | - | - | - |
| 1777925744 | 17.78° C | 87% | 1013.1 hPa | - | - | - | - |
| 1777925444 | 17.22° C | 91% | 1013.1 hPa | - | - | - | - |
| 1777925143 | 17.22° C | 89% | 1013.2 hPa | - | - | - | - |
| 1777924844 | 17.22° C | 85% | 1013.1 hPa | - | - | - | - |
| 1777924544 | 18.33° C | 80% | 1013.1 hPa | - | - | - | - |
| 1777924244 | 17.78° C | 83% | 1013 hPa | - | - | - | - |
| 1777923944 | 17.78° C | 81% | 1013 hPa | - | - | - | - |
| 1777923643 | 17.78° C | 82% | 1013 hPa | - | - | - | - |
| 1777923343 | 17.78° C | 83% | 1012.9 hPa | - | - | - | - |
| 1777923043 | 17.22° C | 84% | 1012.9 hPa | - | - | - | - |
| 1777922443 | 17.78° C | 81% | 1012.8 hPa | - | - | - | - |
| 1777922143 | 17.78° C | 83% | 1012.8 hPa | - | - | - | - |
| 1777921843 | 17.78° C | 80% | 1012.8 hPa | - | - | - | - |
| 1777921543 | 17.78° C | 79% | 1012.7 hPa | - | - | - | - |
| 1777921243 | 17.22° C | 82% | 1012.7 hPa | - | - | - | - |
| 1777920943 | 18.33° C | 80% | 1012.6 hPa | - | - | - | - |
| 1777920643 | 18.33° C | 81% | 1012.6 hPa | - | - | - | - |
| 1777920343 | 18.33° C | 82% | 1012.6 hPa | - | - | - | - |
| 1777920043 | 18.33° C | 81% | 1012.6 hPa | - | - | - | - |
| 1777919742 | 17.78° C | 85% | 1012.6 hPa | - | - | - | - |
| 1777919442 | 18.33° C | 87% | 1012.6 hPa | - | - | - | - |
| 1777919142 | 17.78° C | 88% | 1012.6 hPa | - | - | - | - |
* Rain since midnight (hover to see other rain measurements)
** Current wind speed in m/s (hover to see current wind gust speed)